Time;durP1;ratioP1;P1;durP2;ratioP2;P2;SDS_P1;SDS_P2;PMS_P1;PMS_P2;Temp;Humidity;BMP_temperature;BMP_pressure;BME280_temperature;BME280_humidity;BME280_pressure;Samples;Min_cycle;Max_cycle;Signal;HPM_P1;HPM_P2
2022/04/03 00:00:38;;;;;;;4.00;1.20;;;;;;;1.78;60.22;100774.31;5037973;28;20025;-79
2022/04/03 00:03:04;;;;;;;5.07;1.23;;;;;;;1.77;59.75;100769.97;5038372;28;20037;-81
2022/04/03 00:05:33;;;;;;;3.13;1.23;;;;;;;1.57;60.55;100772.63;5038280;28;20369;-80
2022/04/03 00:08:05;;;;;;;2.72;1.10;;;;;;;1.61;60.68;100781.97;5020449;28;20048;-81
2022/04/03 00:10:31;;;;;;;2.42;1.10;;;;;;;1.69;60.28;100773.31;5037600;28;20040;-79
2022/04/03 00:13:11;;;;;;;3.78;1.10;;;;;;;1.67;60.41;100761.97;5037443;28;20037;-80
2022/04/03 00:15:41;;;;;;;2.67;1.00;;;;;;;1.82;60.28;100768.53;5019771;28;20037;-81
2022/04/03 00:18:07;;;;;;;3.05;1.30;;;;;;;1.79;60.24;100768.84;5040491;28;20040;-81
2022/04/03 00:20:37;;;;;;;3.45;1.20;;;;;;;1.66;61.47;100773.56;5040883;28;20025;-80
2022/04/03 00:23:03;;;;;;;3.40;1.20;;;;;;;1.60;60.77;100766.19;5043196;28;20101;-82
2022/04/03 00:25:28;;;;;;;2.20;0.98;;;;;;;1.64;61.54;100773.72;5042186;28;20474;-80
2022/04/03 00:27:57;;;;;;;3.95;1.30;;;;;;;1.71;61.02;100766.88;5043892;28;20029;-80
2022/04/03 00:30:23;;;;;;;2.67;1.00;;;;;;;1.70;61.20;100764.38;5037304;28;20029;-81
2022/04/03 00:32:48;;;;;;;2.60;1.20;;;;;;;1.67;61.71;100770.78;5036018;28;20475;-80
2022/04/03 00:35:15;;;;;;;3.92;1.13;;;;;;;1.46;61.92;100774.53;5037871;28;20026;-81
2022/04/03 00:37:40;;;;;;;;;;;;;;;1.45;62.09;100772.84;5037435;28;20179;-80
2022/04/03 00:40:09;;;;;;;3.60;1.25;;;;;;;1.55;61.74;100779.03;5036592;28;20390;-81
2022/04/03 00:42:38;;;;;;;2.72;1.08;;;;;;;1.48;61.82;100775.25;5018405;28;20038;-81
2022/04/03 00:45:04;;;;;;;2.53;1.27;;;;;;;1.46;62.43;100775.38;5019053;28;20075;-81
2022/04/03 00:47:31;;;;;;;4.88;1.30;;;;;;;1.76;61.96;100777.09;5035206;28;20484;-80
2022/04/03 00:49:57;;;;;;;3.30;1.85;;;;;;;1.53;61.89;100773.03;5035750;28;20125;-81
2022/04/03 00:52:23;;;;;;;;;;;;;;;1.42;61.84;100775.81;5019660;28;20045;-81
2022/04/03 00:54:48;;;;;;;2.25;1.02;;;;;;;1.51;62.34;100775.81;5018824;28;19913;-81
2022/04/03 00:57:18;;;;;;;3.50;1.23;;;;;;;1.43;62.47;100772.19;5036413;28;20056;-80
2022/04/03 00:59:47;;;;;;;3.00;1.13;;;;;;;1.44;62.01;100776.47;5020604;28;20029;-81
2022/04/03 01:02:15;;;;;;;2.72;1.23;;;;;;;1.48;61.89;100770.78;5039510;28;20033;-81
2022/04/03 01:04:41;;;;;;;2.70;1.20;;;;;;;1.47;62.14;100773.56;5037698;28;20397;-80
2022/04/03 01:07:07;;;;;;;5.00;1.40;;;;;;;1.47;62.37;100779.72;5018339;28;20460;-80
2022/04/03 01:09:32;;;;;;;4.50;1.40;;;;;;;1.55;62.22;100782.53;5036691;28;20034;-79
2022/04/03 01:11:58;;;;;;;3.10;1.23;;;;;;;1.51;62.24;100781.13;5039116;28;20510;-79
2022/04/03 01:14:34;;;;;;;4.93;1.30;;;;;;;1.53;61.55;100770.38;5040417;28;20183;-79
2022/04/03 01:17:00;;;;;;;6.18;1.30;;;;;;;1.53;61.39;100779.16;5040622;28;20034;-79
2022/04/03 01:19:25;;;;;;;3.63;1.70;;;;;;;1.52;61.59;100777.50;5039335;28;20029;-80
2022/04/03 01:21:51;;;;;;;3.92;1.10;;;;;;;1.53;62.14;100780.97;5040034;28;20095;-79
2022/04/03 01:24:18;;;;;;;3.65;1.30;;;;;;;1.40;61.92;100786.56;5021920;28;20116;-79
2022/04/03 01:26:43;;;;;;;3.58;1.20;;;;;;;1.33;61.37;100780.09;5039131;28;20049;-78
2022/04/03 01:29:09;;;;;;;3.08;1.10;;;;;;;1.43;61.11;100775.69;5039364;28;20033;-80
2022/04/03 01:31:34;;;;;;;4.78;1.30;;;;;;;1.32;61.82;100773.97;5023152;28;20064;-78
2022/04/03 01:33:59;;;;;;;3.70;1.35;;;;;;;1.17;62.01;100777.97;5038904;28;20156;-79
2022/04/03 01:36:25;;;;;;;3.45;1.63;;;;;;;1.16;61.91;100770.16;5039380;28;20122;-79
2022/04/03 01:38:50;;;;;;;3.20;1.30;;;;;;;1.15;62.61;100777.28;5038296;28;20041;-79
2022/04/03 01:41:16;;;;;;;3.20;1.30;;;;;;;1.18;62.53;100769.03;5021011;28;20331;-79
2022/04/03 01:43:41;;;;;;;3.55;1.33;;;;;;;1.12;61.79;100769.59;5038683;28;20388;-79
2022/04/03 01:46:06;;;;;;;6.03;1.20;;;;;;;1.23;62.14;100766.84;5037733;28;20033;-78
2022/04/03 01:48:32;;;;;;;3.60;1.20;;;;;;;1.13;62.46;100765.94;5037839;28;20388;-79
2022/04/03 01:50:57;;;;;;;4.72;1.48;;;;;;;1.21;62.08;100771.44;5037529;28;20029;-79
2022/04/03 01:53:25;;;;;;;4.53;1.42;;;;;;;1.20;62.54;100776.88;5038246;28;20021;-79
2022/04/03 01:56:01;;;;;;;2.65;1.00;;;;;;;1.14;61.81;100772.09;5039322;28;20077;-79
2022/04/03 01:58:27;;;;;;;3.42;1.27;;;;;;;1.11;61.84;100769.72;5039688;28;20087;-80
2022/04/03 02:00:52;;;;;;;3.75;1.30;;;;;;;0.92;62.89;100771.31;5039639;28;20037;-79
2022/04/03 02:03:18;;;;;;;3.70;1.45;;;;;;;1.06;62.59;100771.94;5040062;28;20041;-79
2022/04/03 02:05:43;;;;;;;3.58;1.48;;;;;;;1.03;62.21;100771.25;5038701;28;20030;-79
2022/04/03 02:08:09;;;;;;;5.72;1.40;;;;;;;0.99;63.32;100771.66;5040174;28;20092;-79
2022/04/03 02:10:34;;;;;;;4.47;1.20;;;;;;;0.97;61.95;100769.13;5022410;28;20368;-78
2022/04/03 02:13:00;;;;;;;4.28;1.92;;;;;;;0.84;61.98;100773.84;5038168;28;20464;-78
2022/04/03 02:15:25;;;;;;;4.40;1.10;;;;;;;0.76;62.35;100770.16;5038619;28;20042;-78
2022/04/03 02:17:50;;;;;;;4.67;1.27;;;;;;;0.76;62.45;100781.59;5037715;28;20347;-79
2022/04/03 02:20:16;;;;;;;3.87;1.50;;;;;;;0.77;63.32;100772.69;5037138;28;20364;-79
2022/04/03 02:22:41;;;;;;;4.73;1.40;;;;;;;0.95;62.32;100772.88;5036950;28;20801;-79
2022/04/03 02:25:11;;;;;;;2.38;0.95;;;;;;;0.74;62.60;100772.94;5019707;28;20029;-78
2022/04/03 02:27:38;;;;;;;5.97;1.70;;;;;;;0.66;63.38;100770.13;5018888;28;20037;-78
2022/04/03 02:30:10;;;;;;;2.67;1.20;;;;;;;0.61;63.24;100769.66;5036052;28;20061;-79
2022/04/03 02:32:39;;;;;;;3.33;1.52;;;;;;;0.61;63.98;100772.31;5036439;28;20100;-79
2022/04/03 02:35:07;;;;;;;3.85;1.30;;;;;;;0.66;63.41;100770.13;5036715;28;20034;-79
2022/04/03 02:37:36;;;;;;;5.78;1.50;;;;;;;0.55;63.60;100770.19;5037219;28;20033;-79
2022/04/03 02:40:06;;;;;;;4.45;1.75;;;;;;;0.54;63.87;100773.81;5036714;28;20033;-78
2022/04/03 02:42:32;;;;;;;3.08;1.30;;;;;;;0.62;63.17;100776.66;5037059;28;20056;-79
2022/04/03 02:44:58;;;;;;;8.50;1.73;;;;;;;0.63;63.52;100773.03;5038557;28;20036;-79
2022/04/03 02:47:23;;;;;;;3.53;1.30;;;;;;;0.62;63.93;100772.19;5038236;28;20536;-79
2022/04/03 02:49:52;;;;;;;5.53;1.80;;;;;;;0.51;64.36;100774.09;5037516;28;20026;-79
2022/04/03 02:52:19;;;;;;;4.35;1.70;;;;;;;0.46;64.39;100781.59;5037437;28;20465;-79
2022/04/03 02:54:45;;;;;;;3.83;1.50;;;;;;;0.49;64.21;100781.34;5037908;28;20045;-79
2022/04/03 02:57:17;;;;;;;5.85;2.05;;;;;;;0.45;64.68;100769.31;5020404;28;20113;-79
2022/04/03 02:59:44;;;;;;;5.10;1.73;;;;;;;0.45;64.14;100775.47;5021923;28;20037;-80
2022/04/03 03:02:10;;;;;;;7.22;1.70;;;;;;;0.47;64.53;100773.53;5039164;28;20037;-83
2022/04/03 03:04:35;;;;;;;3.90;1.50;;;;;;;0.41;64.57;100768.72;5036838;28;20038;-79
2022/04/03 03:07:02;;;;;;;2.25;1.10;;;;;;;0.47;64.46;100772.69;5037302;28;20037;-79
2022/04/03 03:09:28;;;;;;;7.28;1.85;;;;;;;0.34;64.88;100778.19;5036474;28;20030;-79
2022/04/03 03:11:53;;;;;;;4.38;1.95;;;;;;;0.31;64.86;100774.00;5036347;28;20049;-78
2022/04/03 03:14:19;;;;;;;3.97;1.33;;;;;;;0.39;64.88;100781.28;5019359;28;20084;-80
2022/04/03 03:16:44;;;;;;;7.05;1.60;;;;;;;0.38;65.33;100770.78;5020635;28;20260;-78
2022/04/03 03:19:09;;;;;;;4.32;1.48;;;;;;;0.37;64.64;100780.56;5040216;28;20033;-78
2022/04/03 03:21:36;;;;;;;8.07;1.73;;;;;;;0.34;64.79;100775.53;5039825;28;20053;-81
2022/04/03 03:24:02;;;;;;;3.08;1.30;;;;;;;0.38;64.55;100773.44;5040515;28;20299;-78
2022/04/03 03:26:27;;;;;;;3.25;1.40;;;;;;;0.27;64.78;100764.63;5040235;28;20461;-78
2022/04/03 03:28:52;;;;;;;3.95;1.70;;;;;;;0.26;64.90;100768.22;5039686;28;20142;-78
2022/04/03 03:31:19;;;;;;;3.78;1.50;;;;;;;0.21;65.50;100770.44;5040221;28;20037;-78
2022/04/03 03:33:45;;;;;;;6.20;1.40;;;;;;;0.23;65.42;100775.59;5037541;28;20037;-79
2022/04/03 03:36:11;;;;;;;4.90;1.80;;;;;;;0.25;65.51;100782.44;5018517;28;20052;-80
2022/04/03 03:38:37;;;;;;;5.07;2.00;;;;;;;0.30;65.31;100771.47;5036552;28;20464;-78
2022/04/03 03:41:03;;;;;;;2.78;1.20;;;;;;;0.30;65.73;100774.97;5018586;28;20048;-79
2022/04/03 03:43:28;;;;;;;5.22;1.75;;;;;;;0.30;65.53;100779.41;5037313;28;20039;-80
2022/04/03 03:45:54;;;;;;;3.93;1.70;;;;;;;0.29;66.55;100781.22;5038427;28;20112;-79
2022/04/03 03:48:19;;;;;;;4.77;1.50;;;;;;;0.22;66.15;100785.34;5038198;28;20300;-79
2022/04/03 03:50:44;;;;;;;4.33;1.83;;;;;;;0.40;66.14;100787.41;5039606;28;20283;-79
2022/04/03 03:53:09;;;;;;;9.40;1.73;;;;;;;0.39;65.92;100786.56;5022311;28;20079;-80
2022/04/03 03:55:35;;;;;;;4.53;2.03;;;;;;;0.45;65.75;100788.72;5039118;28;20029;-80
2022/04/03 03:58:00;;;;;;;4.10;1.30;;;;;;;0.60;65.74;100794.50;5037376;28;20264;-79
2022/04/03 04:00:26;;;;;;;5.83;1.70;;;;;;;0.71;65.60;100781.19;5037690;28;20264;-79
2022/04/03 04:02:51;;;;;;;5.35;1.90;;;;;;;0.52;65.59;100781.94;5019896;28;20276;-79
2022/04/03 04:05:17;;;;;;;4.13;1.77;;;;;;;0.37;66.51;100782.38;5038075;28;20033;-80
2022/04/03 04:07:43;;;;;;;3.55;1.63;;;;;;;0.49;65.64;100786.66;5038696;28;20026;-79
2022/04/03 04:10:11;;;;;;;;;;;;;;;0.13;67.25;100791.44;5038312;28;20079;-79
2022/04/03 04:12:36;;;;;;;4.07;1.48;;;;;;;0.04;67.64;100799.31;5036779;28;19909;-79
2022/04/03 04:15:03;;;;;;;5.57;1.90;;;;;;;-0.03;68.35;100794.53;5019137;28;20046;-79
2022/04/03 04:17:33;;;;;;;6.35;1.85;;;;;;;0.07;67.99;100799.91;5036752;28;20129;-80
2022/04/03 04:19:58;;;;;;;6.10;2.30;;;;;;;-0.18;69.30;100802.94;5035825;28;20071;-79
2022/04/03 04:22:23;;;;;;;6.47;2.00;;;;;;;-0.38;69.73;100802.75;5036546;28;20030;-79
2022/04/03 04:24:49;;;;;;;5.20;2.43;;;;;;;-0.48;69.81;100811.56;5036930;28;20037;-80
2022/04/03 04:27:14;;;;;;;4.63;2.13;;;;;;;-0.53;69.96;100808.44;5035973;28;20276;-79
2022/04/03 04:29:40;;;;;;;5.10;2.03;;;;;;;-0.52;70.12;100807.47;5035510;28;20057;-82
2022/04/03 04:32:05;;;;;;;4.93;1.83;;;;;;;-0.64;70.00;100808.47;5036929;28;20128;-79
2022/04/03 04:34:30;;;;;;;6.38;2.33;;;;;;;-0.68;70.26;100810.50;5037125;28;20113;-79
2022/04/03 04:36:56;;;;;;;5.27;2.23;;;;;;;-0.70;70.57;100807.16;5036420;28;20031;-79
2022/04/03 04:39:21;;;;;;;6.90;1.90;;;;;;;-0.71;70.23;100816.88;5035621;28;20263;-80
2022/04/03 04:41:46;;;;;;;7.37;1.80;;;;;;;-0.77;69.75;100814.75;5036082;28;20726;-79
2022/04/03 04:44:12;;;;;;;4.38;1.90;;;;;;;-0.83;70.32;100817.03;5036712;28;20033;-80
2022/04/03 04:46:37;;;;;;;10.57;1.90;;;;;;;-0.86;70.55;100818.13;5042628;28;20037;-79
2022/04/03 04:49:02;;;;;;;4.80;1.90;;;;;;;-0.96;70.62;100817.19;5042698;28;20041;-79
2022/04/03 04:51:28;;;;;;;7.40;2.10;;;;;;;-1.00;70.54;100821.03;5042878;28;20040;-79
2022/04/03 04:53:53;;;;;;;4.87;1.87;;;;;;;-0.97;70.81;100825.22;5043635;28;20048;-79
2022/04/03 04:56:18;;;;;;;2.92;1.50;;;;;;;-0.99;70.31;100825.34;5044787;28;20037;-79
2022/04/03 04:58:44;;;;;;;4.60;1.98;;;;;;;-0.98;71.16;100824.38;5044030;28;20041;-80
2022/04/03 05:01:09;;;;;;;4.53;1.93;;;;;;;-0.98;70.67;100828.84;5045109;28;20035;-80
2022/04/03 05:03:34;;;;;;;4.20;2.08;;;;;;;-0.92;70.68;100833.66;5046422;28;20757;-80
2022/04/03 05:06:00;;;;;;;4.23;1.80;;;;;;;-0.86;70.17;100838.44;5043467;28;20442;-79
2022/04/03 05:08:26;;;;;;;6.90;2.13;;;;;;;-0.90;70.41;100837.03;5042416;28;20340;-80
2022/04/03 05:10:53;;;;;;;5.65;2.20;;;;;;;-0.83;69.94;100843.50;5042951;28;20065;-79
2022/04/03 05:13:19;;;;;;;5.22;1.80;;;;;;;-0.88;70.18;100848.28;5042997;28;20037;-79
2022/04/03 05:15:45;;;;;;;5.35;2.05;;;;;;;-0.98;70.28;100850.00;5042871;28;20029;-79
2022/04/03 05:18:10;;;;;;;4.05;1.63;;;;;;;-0.98;70.15;100852.63;5046505;28;20037;-80
2022/04/03 05:20:36;;;;;;;5.45;1.67;;;;;;;-0.98;70.36;100856.13;5050391;28;20069;-80
2022/04/03 05:23:01;;;;;;;4.18;1.63;;;;;;;-0.95;70.18;100855.03;5045124;28;20033;-79
2022/04/03 05:25:27;;;;;;;5.70;2.40;;;;;;;-1.13;70.37;100860.81;5043447;28;20038;-78
2022/04/03 05:27:52;;;;;;;4.90;1.60;;;;;;;-1.08;70.11;100861.31;5042079;28;20468;-78
2022/04/03 05:30:18;;;;;;;6.32;1.80;;;;;;;-1.00;69.82;100865.97;5040772;28;20086;-78
2022/04/03 05:32:43;;;;;;;7.23;1.80;;;;;;;-1.15;70.31;100865.38;5041461;28;20029;-80
2022/04/03 05:35:10;;;;;;;4.20;2.13;;;;;;;-1.16;70.14;100863.69;5042550;28;20268;-79
2022/04/03 05:37:36;;;;;;;6.38;2.55;;;;;;;-1.23;70.31;100867.75;5041768;28;20034;-80
2022/04/03 05:40:04;;;;;;;5.72;2.38;;;;;;;-1.24;69.89;100868.72;5041741;28;20109;-79
2022/04/03 05:42:34;;;;;;;5.95;2.17;;;;;;;-1.22;69.50;100873.88;5025164;28;20030;-79
2022/04/03 05:44:59;;;;;;;5.90;1.92;;;;;;;-1.21;69.48;100872.94;5042559;28;20029;-79
2022/04/03 05:47:25;;;;;;;4.38;2.20;;;;;;;-1.17;69.64;100872.59;5042385;28;20055;-79
2022/04/03 05:49:50;;;;;;;9.50;3.07;;;;;;;-0.67;68.01;100869.56;5043863;28;20061;-79
2022/04/03 05:52:16;;;;;;;5.83;2.40;;;;;;;-0.63;67.11;100873.66;5044231;28;20330;-79
2022/04/03 05:54:41;;;;;;;5.68;1.88;;;;;;;-0.76;66.86;100865.88;5044619;28;20858;-80
2022/04/03 05:57:07;;;;;;;7.82;2.45;;;;;;;-0.71;67.63;100872.44;5045106;28;20388;-79
2022/04/03 05:59:33;;;;;;;5.68;2.38;;;;;;;-0.46;67.01;100873.16;5044061;28;20433;-79
2022/04/03 06:01:58;;;;;;;8.20;2.38;;;;;;;-0.56;67.04;100877.50;5039993;28;20088;-78
2022/04/03 06:04:24;;;;;;;5.95;2.40;;;;;;;-0.57;66.86;100876.66;5019022;28;20101;-78
2022/04/03 06:06:49;;;;;;;6.13;2.90;;;;;;;-0.50;67.06;100883.13;5019372;28;20125;-79
2022/04/03 06:09:15;;;;;;;4.25;1.80;;;;;;;-0.15;65.77;100876.81;5036941;28;20041;-79
2022/04/03 06:11:40;;;;;;;5.15;2.60;;;;;;;-0.14;65.65;100878.50;5036590;28;20038;-77
2022/04/03 06:14:06;;;;;;;4.78;2.42;;;;;;;0.32;64.77;100878.19;5036012;28;20150;-77
2022/04/03 06:16:31;;;;;;;5.45;2.10;;;;;;;0.07;65.41;100876.72;5036460;28;20034;-78
2022/04/03 06:18:56;;;;;;;6.82;2.25;;;;;;;0.09;65.20;100876.59;5035835;28;20041;-78
2022/04/03 06:21:22;;;;;;;3.83;1.70;;;;;;;0.34;64.81;100879.75;5035861;28;20065;-78
2022/04/03 06:23:47;;;;;;;6.80;2.65;;;;;;;0.34;64.38;100877.13;5035761;28;20089;-78
2022/04/03 06:26:13;;;;;;;5.18;2.17;;;;;;;0.45;64.55;100884.16;5036316;28;20033;-77
2022/04/03 06:28:38;;;;;;;4.32;2.22;;;;;;;0.57;63.73;100875.16;5035801;28;20366;-78
2022/04/03 06:31:04;;;;;;;5.20;2.00;;;;;;;0.67;63.23;100872.59;5036416;28;20112;-78
2022/04/03 06:33:29;;;;;;;4.47;1.92;;;;;;;0.81;63.95;100882.00;5036346;28;20387;-79
2022/04/03 06:35:55;;;;;;;5.27;2.10;;;;;;;0.98;62.37;100876.09;5037231;28;20034;-78
2022/04/03 06:38:20;;;;;;;4.22;1.85;;;;;;;0.97;62.89;100885.03;5037693;28;20256;-78
2022/04/03 06:40:53;;;;;;;5.28;2.17;;;;;;;1.04;62.55;100889.69;5037917;28;20041;-78
2022/04/03 06:43:25;;;;;;;4.05;1.92;;;;;;;1.15;62.39;100880.78;5038130;28;20460;-78
2022/04/03 06:45:51;;;;;;;7.65;2.30;;;;;;;1.25;63.83;100880.84;5039131;28;20037;-78
2022/04/03 06:48:18;;;;;;;7.07;1.80;;;;;;;1.50;61.71;100884.81;5038273;28;20033;-78
2022/04/03 06:50:43;;;;;;;;;;;;;;;1.47;61.29;100883.28;5038500;28;20044;-78
2022/04/03 06:53:08;;;;;;;4.68;2.22;;;;;;;1.58;60.71;100880.53;5036861;28;19917;-78
2022/04/03 06:55:35;;;;;;;7.68;2.20;;;;;;;1.73;60.42;100887.13;5035600;28;20048;-78
2022/04/03 06:58:01;;;;;;;;;;;;;;;1.67;61.65;100887.66;5037107;28;20033;-78
2022/04/03 07:00:26;;;;;;;3.50;1.58;;;;;;;1.80;60.84;100892.72;5037234;28;19909;-79
2022/04/03 07:02:51;;;;;;;4.93;1.65;;;;;;;1.97;58.58;100888.56;5037127;28;20026;-79
2022/04/03 07:05:17;;;;;;;6.10;2.20;;;;;;;2.07;59.87;100889.41;5018303;28;20038;-79
2022/04/03 07:07:43;;;;;;;;;;;;;;;1.99;58.68;100891.91;5036267;28;20044;-79
2022/04/03 07:10:09;;;;;;;5.47;2.00;;;;;;;2.12;57.29;100887.19;5036607;28;19913;-80
2022/04/03 07:12:35;;;;;;;3.88;1.45;;;;;;;2.24;58.11;100886.06;5036069;28;20029;-78
2022/04/03 07:15:01;;;;;;;;;;;;;;;2.08;56.10;100888.44;5036989;28;20057;-78
2022/04/03 07:17:26;;;;;;;2.08;0.98;;;;;;;2.26;54.76;100886.75;5036266;28;20356;-78
2022/04/03 07:19:52;;;;;;;3.78;1.50;;;;;;;2.42;56.38;100884.38;5036387;28;20135;-78
2022/04/03 07:22:17;;;;;;;;;;;;;;;2.41;55.38;100884.50;5036742;28;20112;-79
2022/04/03 07:24:43;;;;;;;1.92;0.80;;;;;;;2.33;53.38;100887.84;5036579;28;20327;-79
2022/04/03 07:27:08;;;;;;;3.70;1.00;;;;;;;2.60;53.45;100883.66;5035964;28;20025;-78
2022/04/03 07:29:40;;;;;;;6.47;2.03;;;;;;;2.71;55.24;100889.66;5112410;27;1266900;-78
2022/04/03 07:32:06;;;;;;;5.20;1.23;;;;;;;2.98;52.63;100886.25;5133202;27;20035;-78
2022/04/03 07:34:33;;;;;;;3.63;1.27;;;;;;;2.80;53.26;100895.94;5132727;28;20023;-78
2022/04/03 07:36:58;;;;;;;2.95;1.20;;;;;;;2.84;54.15;100894.69;5131808;28;20458;-78
2022/04/03 07:39:26;;;;;;;8.93;1.63;;;;;;;2.81;53.41;100894.97;5133252;28;20059;-79
2022/04/03 07:41:51;;;;;;;3.70;1.50;;;;;;;2.77;55.18;100904.22;5133236;27;20034;-78
2022/04/03 07:44:17;;;;;;;3.30;1.10;;;;;;;2.82;53.32;100903.78;5132952;28;20028;-80
2022/04/03 07:46:42;;;;;;;8.00;2.08;;;;;;;2.91;53.22;100895.78;5133228;27;20039;-77
2022/04/03 07:49:08;;;;;;;3.88;1.48;;;;;;;3.07;54.29;100904.00;5135032;28;20038;-76
2022/04/03 07:51:34;;;;;;;5.13;1.48;;;;;;;3.13;51.93;100908.75;5131730;27;20366;-76
2022/04/03 07:53:59;;;;;;;3.47;1.65;;;;;;;3.17;51.30;100908.47;5131350;28;20095;-77
2022/04/03 07:56:25;;;;;;;3.53;1.00;;;;;;;3.24;54.82;100910.38;5131322;27;20034;-77
2022/04/03 07:58:50;;;;;;;3.33;1.30;;;;;;;3.25;52.62;100909.41;5131643;28;20033;-78
2022/04/03 08:01:16;;;;;;;3.47;1.37;;;;;;;3.39;52.76;100910.78;5131269;27;20042;-78
2022/04/03 08:03:41;;;;;;;3.28;1.23;;;;;;;3.41;51.73;100911.44;5131145;27;20623;-77
2022/04/03 08:06:06;;;;;;;2.93;1.00;;;;;;;3.38;50.90;100912.59;5131554;27;20035;-77
2022/04/03 08:08:32;;;;;;;1.77;0.80;;;;;;;3.66;50.97;100908.09;5130955;28;20288;-77
2022/04/03 08:10:58;;;;;;;2.35;0.93;;;;;;;3.64;50.86;100918.06;5131098;27;20249;-77
2022/04/03 08:13:23;;;;;;;2.65;1.10;;;;;;;3.60;50.34;100915.84;5123478;27;20106;-77
2022/04/03 08:15:49;;;;;;;3.57;1.10;;;;;;;3.90;49.64;100912.03;5109343;28;20031;-77
2022/04/03 08:18:15;;;;;;;2.85;1.30;;;;;;;3.68;49.80;100922.13;5110791;28;20016;-77
2022/04/03 08:20:40;;;;;;;;;;;;;;;3.79;49.76;100918.41;5110738;28;20024;-77
2022/04/03 08:23:06;;;;;;;1.33;0.52;;;;;;;4.00;48.88;100923.47;5110378;28;19908;-77
2022/04/03 08:25:32;;;;;;;3.05;1.02;;;;;;;4.26;49.33;100916.41;5110457;28;20016;-76
2022/04/03 08:27:57;;;;;;;;;;;;;;;4.10;48.43;100916.25;5110762;28;20051;-77
2022/04/03 08:30:26;;;;;;;3.92;1.05;;;;;;;4.23;47.87;100922.06;5110130;28;19980;-77
2022/04/03 08:32:52;;;;;;;2.10;0.88;;;;;;;4.42;46.98;100921.06;5110551;28;20028;-77
2022/04/03 08:35:18;;;;;;;;;;;;;;;4.48;48.32;100931.94;5110844;28;20020;-77
2022/04/03 08:37:44;;;;;;;2.15;0.80;;;;;;;4.69;47.01;100923.63;5109170;28;19919;-77
2022/04/03 08:40:11;;;;;;;3.58;1.30;;;;;;;4.54;45.83;100927.84;5101733;28;20110;-78
2022/04/03 08:42:37;;;;;;;2.22;0.93;;;;;;;4.34;45.32;100927.16;5096234;28;20092;-77
2022/04/03 08:45:04;;;;;;;3.17;1.02;;;;;;;4.39;46.35;100929.38;5096496;28;20115;-77
2022/04/03 08:47:30;;;;;;;2.80;1.10;;;;;;;4.42;46.51;100919.25;5095161;28;20123;-78
2022/04/03 08:50:01;;;;;;;2.17;0.90;;;;;;;4.32;46.75;100923.78;5096454;28;20110;-78
2022/04/03 08:52:27;;;;;;;2.80;1.00;;;;;;;4.30;47.03;100924.97;5096299;28;20034;-77
2022/04/03 08:54:53;;;;;;;2.63;0.93;;;;;;;4.13;45.62;100923.94;5095313;28;20039;-78
2022/04/03 08:57:18;;;;;;;4.50;1.10;;;;;;;4.11;44.81;100926.78;5096277;28;20375;-78
2022/04/03 08:59:45;;;;;;;4.20;1.00;;;;;;;4.09;46.33;100928.75;5096664;28;20039;-78
2022/04/03 09:02:13;;;;;;;3.58;1.10;;;;;;;4.08;46.26;100928.91;5096380;28;20036;-77
2022/04/03 09:04:39;;;;;;;3.67;0.95;;;;;;;3.99;46.30;100935.97;5096050;28;20056;-78
2022/04/03 09:07:04;;;;;;;1.70;0.67;;;;;;;3.89;46.74;100937.84;5095877;28;20466;-77
2022/04/03 09:09:30;;;;;;;2.22;0.80;;;;;;;3.92;48.03;100939.38;5094841;28;20107;-78
2022/04/03 09:12:13;;;;;;;3.90;1.65;;;;;;;4.36;48.17;100935.00;5096674;28;20111;-77
2022/04/03 09:14:50;;;;;;;3.33;1.05;;;;;;;3.99;47.99;100941.28;5096129;28;20034;-78
2022/04/03 09:17:32;;;;;;;3.03;0.90;;;;;;;3.99;49.27;100937.78;5094820;28;20028;-77
2022/04/03 09:20:09;;;;;;;3.15;1.33;;;;;;;4.04;48.69;100936.34;5096525;28;20474;-77
2022/04/03 09:22:37;;;;;;;2.70;1.30;;;;;;;3.83;49.64;100936.63;5095842;28;20450;-77
2022/04/03 09:25:09;;;;;;;2.40;0.90;;;;;;;3.68;49.98;100942.59;5094678;28;20038;-78
2022/04/03 09:27:35;;;;;;;3.80;1.00;;;;;;;3.47;49.96;100946.31;5095914;28;20063;-77
2022/04/03 09:30:07;;;;;;;6.32;1.95;;;;;;;3.40;50.57;100934.56;5095580;28;20474;-77
2022/04/03 09:32:33;;;;;;;2.95;1.00;;;;;;;3.38;50.74;100939.22;5097447;28;20122;-77
2022/04/03 09:34:59;;;;;;;2.83;1.10;;;;;;;3.45;50.96;100942.97;5097594;28;20110;-78
2022/04/03 09:37:26;;;;;;;2.70;0.90;;;;;;;3.43;50.49;100933.44;5097842;28;20071;-78
2022/04/03 09:39:53;;;;;;;3.58;1.00;;;;;;;3.46;51.72;100939.31;5096549;28;20061;-77
2022/04/03 09:42:19;;;;;;;2.95;0.88;;;;;;;3.32;51.86;100931.81;5097033;28;20382;-78
2022/04/03 09:44:47;;;;;;;2.22;1.00;;;;;;;3.29;51.74;100931.25;5096858;28;20122;-78
2022/04/03 09:47:34;;;;;;;3.50;1.30;;;;;;;3.33;50.75;100932.66;5096643;28;20063;-77
2022/04/03 09:50:03;;;;;;;4.40;1.13;;;;;;;3.28;50.49;100934.91;5096052;28;20127;-77
2022/04/03 09:52:55;;;;;;;3.13;0.77;;;;;;;3.15;50.80;100935.22;5095010;28;20375;-77
2022/04/03 09:55:27;;;;;;;2.85;1.15;;;;;;;3.33;51.25;100937.97;5092715;28;20044;-77
2022/04/03 09:58:05;;;;;;;3.38;0.90;;;;;;;3.44;50.63;100941.28;5096184;28;20096;-78
2022/04/03 10:00:32;;;;;;;2.33;1.13;;;;;;;3.23;48.66;100942.47;5097864;28;20023;-78
2022/04/03 10:03:05;;;;;;;5.72;1.63;;;;;;;3.14;48.62;100939.72;5097962;28;20530;-79
2022/04/03 10:05:33;;;;;;;2.55;1.10;;;;;;;3.13;48.98;100943.34;5092114;28;20039;-77
2022/04/03 10:08:00;;;;;;;2.53;0.90;;;;;;;3.08;49.44;100939.44;5095679;28;20031;-76
2022/04/03 10:10:29;;;;;;;1.85;0.88;;;;;;;3.12;50.11;100939.00;5094830;28;20088;-77
2022/04/03 10:12:55;;;;;;;4.25;0.88;;;;;;;3.08;52.33;100936.78;5094453;28;20359;-76
2022/04/03 10:15:21;;;;;;;2.88;1.20;;;;;;;3.16;52.24;100941.41;5094550;28;20056;-77
2022/04/03 10:17:47;;;;;;;;;;;;;;;3.12;51.63;100933.69;5093755;28;20032;-77
2022/04/03 10:20:14;;;;;;;2.85;1.15;;;;;;;3.22;52.37;100919.53;5094712;28;19957;-79
2022/04/03 10:22:42;;;;;;;3.10;1.17;;;;;;;3.42;52.49;100921.94;5094824;28;20032;-77
2022/04/03 10:25:11;;;;;;;3.20;1.15;;;;;;;3.73;52.75;100919.84;5094898;28;20028;-76
2022/04/03 10:27:39;;;;;;;6.10;2.15;;;;;;;3.99;53.08;100916.47;5095050;28;20091;-77
2022/04/03 10:30:06;;;;;;;3.92;1.42;;;;;;;4.11;52.35;100908.13;5096905;28;20044;-76
2022/04/03 10:32:34;;;;;;;3.20;1.30;;;;;;;3.93;50.79;100917.06;5094172;28;20032;-77
2022/04/03 10:35:21;;;;;;;5.00;1.27;;;;;;;4.10;51.15;100908.25;5093098;28;20035;-77
2022/04/03 10:37:46;;;;;;;3.55;1.08;;;;;;;4.14;51.87;100909.59;5094072;28;20032;-77
2022/04/03 10:40:16;;;;;;;4.00;1.60;;;;;;;4.41;52.48;100908.72;5094210;28;20034;-77
2022/04/03 10:42:49;;;;;;;1.58;0.75;;;;;;;4.53;52.67;100910.97;5093158;28;20028;-77
2022/04/03 10:45:14;;;;;;;11.00;1.35;;;;;;;4.81;51.13;100900.22;5095190;28;20111;-81
2022/04/03 10:47:44;;;;;;;3.80;1.00;;;;;;;4.57;50.98;100902.69;5096440;28;20067;-77
2022/04/03 10:50:10;;;;;;;3.03;1.05;;;;;;;4.18;51.55;100903.00;5097192;28;20058;-77
2022/04/03 10:52:39;;;;;;;2.13;0.70;;;;;;;4.31;53.86;100886.59;5095549;28;20491;-77
2022/04/03 10:55:15;;;;;;;3.28;1.00;;;;;;;4.63;52.53;100889.56;5093251;28;20039;-77
2022/04/03 10:57:52;;;;;;;3.70;1.35;;;;;;;4.69;53.15;100882.75;5094610;28;20027;-78
2022/04/03 11:00:17;;;;;;;4.20;1.38;;;;;;;5.27;52.66;100874.09;5092853;28;20056;-77
2022/04/03 11:02:44;;;;;;;2.60;0.93;;;;;;;5.42;51.97;100875.16;5093539;28;20040;-77
2022/04/03 11:05:22;;;;;;;2.38;0.77;;;;;;;5.34;52.15;100875.16;5094143;28;20801;-77
2022/04/03 11:07:54;;;;;;;3.03;0.98;;;;;;;5.40;51.93;100871.81;5093692;28;20542;-76
2022/04/03 11:10:48;;;;;;;2.85;0.90;;;;;;;5.37;53.75;100859.63;5094545;28;20036;-78
2022/04/03 11:13:18;;;;;;;3.20;1.33;;;;;;;5.76;52.58;100861.75;5094011;28;20470;-77
2022/04/03 11:15:53;;;;;;;5.40;1.13;;;;;;;5.72;51.88;100879.13;5092631;28;20066;-77
2022/04/03 11:18:42;;;;;;;3.00;1.25;;;;;;;5.33;51.56;100860.09;5094093;28;20042;-78
2022/04/03 11:21:21;;;;;;;4.40;1.00;;;;;;;5.54;52.91;100866.72;5095281;28;20471;-77
2022/04/03 11:23:51;;;;;;;4.18;1.10;;;;;;;5.44;52.72;100860.66;5093685;28;20028;-78
2022/04/03 11:26:18;;;;;;;2.17;0.90;;;;;;;5.17;52.24;100856.38;5093861;28;20474;-77
2022/04/03 11:28:44;;;;;;;3.85;1.00;;;;;;;5.08;52.36;100848.44;5093311;28;20131;-77
2022/04/03 11:31:10;;;;;;;2.65;1.15;;;;;;;5.18;52.21;100849.19;5093683;28;20484;-77
2022/04/03 11:33:37;;;;;;;2.55;0.93;;;;;;;5.06;51.67;100840.59;5094382;28;20036;-77